Terminal Aerodrome Forecast
Issued by NWS

Home | Current Version | Previous Version | Text Only | Print | Product List | Glossary On
Versions: 1 2 3 4 5 6 7 8 9 10 11 12 13 14 15 16 17 18 19 20 21 22
000
FTUS43 KDVN 252100 AAB
TAFCID
TAF AMD
KCID 252140Z 2522/2618 07010KT 1/2SM -SN FZFG VV010
     FM260000 06013KT 1SM -SN BR BKN004 OVC010
     FM260200 02013KT 3SM -SN OVC008
     FM260700 36014KT P6SM BKN015
     FM261200 34014KT P6SM OVC100=

USA.gov is the U.S. government's official web portal to all federal, state and local government web resources and services.